Time;durP1;ratioP1;P1;durP2;ratioP2;P2;SDS_P1;SDS_P2;PMS_P1;PMS_P2;Temp;Humidity;BMP_temperature;BMP_pressure;BME280_temperature;BME280_humidity;BME280_pressure;Samples;Min_cycle;Max_cycle;Signal;HPM_P1;HPM_P2
2022/06/04 00:01:11;;;;;;;3.67;2.50;;;;;;;16.16;59.08;101684.00;5118974;28;20438;-64
2022/06/04 00:03:36;;;;;;;3.97;2.40;;;;;;;16.21;59.34;101692.69;5118887;28;20043;-64
2022/06/04 00:06:02;;;;;;;5.68;2.63;;;;;;;16.17;59.53;101699.81;5119001;28;20096;-65
2022/06/04 00:08:30;;;;;;;3.28;2.20;;;;;;;16.18;58.84;101701.53;5119110;28;20111;-65
2022/06/04 00:16:25;;;;;;;3.22;2.47;;;;;;;16.07;59.24;101684.22;5118772;28;20090;-64
2022/06/04 00:18:51;;;;;;;4.05;2.47;;;;;;;16.01;59.56;101691.38;5118842;28;20031;-66
2022/06/04 00:21:16;;;;;;;4.78;2.83;;;;;;;16.01;59.28;101701.06;5118988;28;20472;-64
2022/06/04 00:23:42;;;;;;;3.88;2.28;;;;;;;16.01;59.08;101682.56;5118454;28;20036;-65
2022/06/04 00:26:10;;;;;;;5.82;2.72;;;;;;;16.04;59.16;101693.06;5118936;28;20102;-64
2022/06/04 00:28:36;;;;;;;4.70;2.55;;;;;;;16.00;59.83;101699.31;5118370;28;20051;-65
2022/06/04 00:31:02;;;;;;;4.93;2.85;;;;;;;15.98;58.75;101706.41;5118794;28;20049;-65
2022/06/04 00:33:28;;;;;;;3.47;2.30;;;;;;;15.94;59.11;101702.09;5118319;28;20024;-64
2022/06/04 00:35:55;;;;;;;2.75;2.22;;;;;;;15.89;59.14;101710.13;5118372;28;20092;-65
2022/06/04 00:38:23;;;;;;;3.15;2.20;;;;;;;15.88;59.50;101718.94;5118333;28;20067;-63
2022/06/04 00:41:21;;;;;;;3.47;2.08;;;;;;;15.89;59.01;101720.69;5118381;28;20023;-63
2022/06/04 00:44:22;;;;;;;5.78;2.55;;;;;;;15.84;59.12;101700.56;5118528;28;20035;-67
2022/06/04 00:47:02;;;;;;;6.35;2.50;;;;;;;15.73;59.20;101698.16;5118066;28;20102;-64
2022/06/04 00:49:28;;;;;;;5.07;2.20;;;;;;;15.75;58.88;101693.72;5118344;28;20039;-64
2022/06/04 00:51:53;;;;;;;5.03;2.55;;;;;;;15.74;58.59;101699.91;5118310;28;20088;-63
2022/06/04 00:54:19;;;;;;;6.82;2.42;;;;;;;15.70;58.81;101705.25;5118079;28;20154;-64
2022/06/04 00:57:06;;;;;;;3.08;2.28;;;;;;;15.73;58.54;101728.97;5118328;28;20353;-65
2022/06/04 00:59:50;;;;;;;4.28;2.10;;;;;;;15.67;58.25;101722.03;5117455;28;20402;-63
2022/06/04 01:02:37;;;;;;;5.90;2.50;;;;;;;15.64;58.41;101736.13;5117923;28;20066;-64
2022/06/04 01:05:08;;;;;;;3.33;2.25;;;;;;;15.57;58.25;101717.84;5117880;28;20024;-64
2022/06/04 01:07:52;;;;;;;3.35;2.20;;;;;;;15.63;58.48;101744.97;5117824;28;20107;-64
2022/06/04 01:10:26;;;;;;;5.70;2.30;;;;;;;15.56;58.52;101756.53;5117886;28;20063;-66
2022/06/04 01:13:07;;;;;;;2.55;2.13;;;;;;;15.60;58.66;101755.56;5117602;28;20069;-64
2022/06/04 01:15:50;;;;;;;2.38;2.17;;;;;;;15.62;58.64;101747.63;5117671;28;20032;-67
2022/06/04 01:18:24;;;;;;;4.22;2.10;;;;;;;15.57;58.61;101753.00;5117788;28;20023;-64
2022/06/04 01:20:52;;;;;;;4.35;2.30;;;;;;;15.54;58.22;101753.03;5117473;28;20043;-65
2022/06/04 01:23:48;;;;;;;3.92;2.10;;;;;;;15.50;58.46;101748.72;5117490;28;20028;-65
2022/06/04 01:26:34;;;;;;;3.65;2.17;;;;;;;15.45;58.37;101750.56;5117604;28;20043;-64
2022/06/04 01:29:08;;;;;;;7.60;2.35;;;;;;;15.41;58.72;101759.41;5117337;28;20039;-64
2022/06/04 01:31:42;;;;;;;3.75;2.30;;;;;;;15.38;58.77;101751.59;5117356;28;20034;-64
2022/06/04 01:34:12;;;;;;;3.15;2.30;;;;;;;15.36;59.24;101755.16;5117600;28;20035;-65
2022/06/04 01:37:00;;;;;;;4.20;2.30;;;;;;;15.37;58.36;101757.75;5117305;28;20024;-63
2022/06/04 01:41:03;;;;;;;4.68;2.15;;;;;;;15.31;58.71;101755.22;5117207;28;20046;-67
2022/06/04 01:42:18;;;;;;;4.00;2.20;;;;;;;15.35;58.83;101759.56;5117123;28;20031;-64
2022/06/04 01:44:45;;;;;;;4.03;2.42;;;;;;;15.26;58.62;101757.06;5117364;28;20027;-64
2022/06/04 01:47:11;;;;;;;2.60;2.20;;;;;;;15.13;59.50;101758.19;5117079;28;20450;-64
2022/06/04 01:49:44;;;;;;;3.40;2.20;;;;;;;15.14;59.65;101771.34;5116702;28;20036;-63
2022/06/04 01:52:32;;;;;;;3.10;2.35;;;;;;;15.09;59.20;101777.59;5117090;28;20088;-63
2022/06/04 01:55:21;;;;;;;3.65;2.25;;;;;;;15.03;59.48;101783.84;5116933;28;20019;-63
2022/06/04 01:57:49;;;;;;;5.05;2.30;;;;;;;14.97;59.87;101790.09;5117326;28;20403;-64
2022/06/04 02:00:23;;;;;;;4.15;2.53;;;;;;;14.90;60.18;101788.44;5116781;28;20104;-64
2022/06/04 02:02:55;;;;;;;5.65;2.88;;;;;;;14.86;60.47;101786.75;5116950;28;20165;-64
2022/06/04 02:05:28;;;;;;;3.90;2.40;;;;;;;14.85;60.75;101782.38;5116607;28;20426;-64
2022/06/04 02:07:54;;;;;;;5.43;2.53;;;;;;;14.80;61.24;101772.81;5116829;28;20030;-67
2022/06/04 02:10:29;;;;;;;4.90;2.30;;;;;;;14.84;61.10;101779.78;5115848;28;20031;-64
2022/06/04 02:12:59;;;;;;;3.78;2.38;;;;;;;14.85;60.93;101777.13;5116539;28;20116;-66
2022/06/04 02:15:36;;;;;;;6.40;2.58;;;;;;;14.90;60.95;101784.94;5116735;28;20484;-64
2022/06/04 02:18:02;;;;;;;3.85;2.53;;;;;;;14.86;60.95;101791.16;5116477;28;20055;-65
2022/06/04 02:20:28;;;;;;;3.47;2.38;;;;;;;14.84;61.25;101785.91;5116440;28;20042;-64
2022/06/04 02:22:54;;;;;;;4.43;2.80;;;;;;;14.81;61.04;101785.97;5117052;28;20028;-65
2022/06/04 02:25:21;;;;;;;8.43;2.70;;;;;;;14.80;61.14;101789.50;5116154;28;20389;-65
2022/06/04 02:27:48;;;;;;;6.03;2.70;;;;;;;14.74;61.14;101786.94;5116113;28;20423;-67
2022/06/04 02:30:14;;;;;;;4.93;2.70;;;;;;;14.68;61.80;101781.78;5116264;28;20031;-65
2022/06/04 02:33:01;;;;;;;3.80;2.53;;;;;;;14.73;61.39;101785.19;5116181;28;20440;-65
2022/06/04 02:35:51;;;;;;;7.97;2.90;;;;;;;14.60;61.83;101783.66;5116534;28;20031;-65
2022/06/04 02:38:26;;;;;;;3.72;2.67;;;;;;;14.64;61.77;101774.81;5098333;28;20043;-65
2022/06/04 02:41:00;;;;;;;4.50;3.22;;;;;;;14.64;62.27;101769.53;5116227;28;20347;-66
2022/06/04 02:43:40;;;;;;;6.40;2.85;;;;;;;14.62;61.95;101763.44;5115998;28;20034;-66
2022/06/04 02:46:22;;;;;;;4.82;3.03;;;;;;;14.58;62.28;101751.19;5115647;28;20043;-64
2022/06/04 02:48:59;;;;;;;4.88;3.08;;;;;;;14.49;62.81;101746.94;5115916;28;20110;-66
2022/06/04 02:51:29;;;;;;;4.78;3.10;;;;;;;14.45;62.83;101733.84;5116106;28;20084;-66
2022/06/04 02:53:56;;;;;;;4.88;3.20;;;;;;;14.37;63.29;101726.03;5115645;28;20027;-64
2022/06/04 02:56:27;;;;;;;5.03;2.80;;;;;;;14.40;63.49;101726.00;5116327;28;20042;-65
2022/06/04 02:58:58;;;;;;;5.25;3.05;;;;;;;14.42;63.07;101723.34;5115894;28;20024;-64
2022/06/04 03:01:24;;;;;;;5.07;2.97;;;;;;;14.46;63.47;101715.38;5115890;28;20446;-65
2022/06/04 03:03:50;;;;;;;7.30;3.30;;;;;;;14.43;63.61;101715.41;5116008;28;20102;-65
2022/06/04 03:06:28;;;;;;;5.40;3.20;;;;;;;14.40;63.49;101715.47;5115758;28;20082;-65
2022/06/04 03:08:53;;;;;;;5.38;3.17;;;;;;;14.36;64.06;101718.16;5115889;28;20031;-65
2022/06/04 03:11:20;;;;;;;5.30;3.38;;;;;;;14.23;64.35;101718.31;5115983;28;20034;-64
2022/06/04 03:13:47;;;;;;;6.82;3.38;;;;;;;14.18;64.84;101714.03;5115511;28;20036;-65
2022/06/04 03:16:15;;;;;;;5.68;3.60;;;;;;;14.24;64.97;101706.91;5115551;28;20066;-64
2022/06/04 03:18:41;;;;;;;5.70;3.40;;;;;;;14.17;65.06;101718.44;5115511;28;20047;-63
2022/06/04 03:21:06;;;;;;;7.00;3.80;;;;;;;14.13;65.22;101721.97;5115241;28;20028;-64
2022/06/04 03:23:32;;;;;;;7.72;4.22;;;;;;;14.06;65.35;101714.19;5115201;28;20039;-66
2022/06/04 03:25:57;;;;;;;7.35;3.85;;;;;;;14.16;65.80;101721.06;5115465;28;20084;-64
2022/06/04 03:28:23;;;;;;;4.60;3.55;;;;;;;14.22;65.42;101718.34;5115209;28;20028;-65
2022/06/04 03:30:48;;;;;;;7.72;4.40;;;;;;;14.13;65.98;101714.09;5115573;28;20116;-66
2022/06/04 03:33:13;;;;;;;5.53;4.10;;;;;;;14.03;66.69;101708.94;5115275;28;20032;-65
2022/06/04 03:35:39;;;;;;;9.40;4.20;;;;;;;14.01;66.73;101708.13;5115266;28;20039;-66
2022/06/04 03:38:04;;;;;;;7.72;4.22;;;;;;;14.05;66.74;101710.69;5115220;28;20451;-64
2022/06/04 03:40:30;;;;;;;5.18;4.28;;;;;;;13.85;67.58;101703.03;5115159;28;20031;-65
2022/06/04 03:42:55;;;;;;;6.13;3.92;;;;;;;13.93;67.65;101724.00;5115124;28;20110;-64
2022/06/04 03:45:21;;;;;;;8.30;4.20;;;;;;;13.90;68.20;101730.19;5115474;28;20115;-66
2022/06/04 03:47:46;;;;;;;9.10;4.10;;;;;;;13.94;67.85;101733.66;5115514;28;20027;-65
2022/06/04 03:50:15;;;;;;;6.85;4.40;;;;;;;13.85;68.18;101736.41;5115444;28;20063;-65
2022/06/04 03:52:41;;;;;;;8.88;5.03;;;;;;;13.85;68.23;101737.25;5114662;28;20051;-66
2022/06/04 03:55:07;;;;;;;8.07;4.63;;;;;;;13.76;68.56;101731.25;5115211;28;20122;-65
2022/06/04 03:57:38;;;;;;;5.60;4.00;;;;;;;13.74;68.80;101736.53;5115240;28;20092;-64
2022/06/04 04:00:06;;;;;;;6.88;5.15;;;;;;;13.82;69.01;101733.81;5115141;28;20054;-65
2022/06/04 04:02:32;;;;;;;10.90;4.82;;;;;;;13.76;68.90;101754.91;5115190;28;20031;-64
2022/06/04 04:04:57;;;;;;;6.97;4.63;;;;;;;13.70;69.31;101747.09;5114390;28;20035;-65
2022/06/04 04:07:23;;;;;;;9.10;5.10;;;;;;;13.71;69.33;101746.22;5115002;28;20027;-64
2022/06/04 04:09:48;;;;;;;5.97;4.50;;;;;;;13.60;69.55;101733.19;5115393;28;20110;-68
2022/06/04 04:12:13;;;;;;;12.38;5.13;;;;;;;13.62;70.09;101747.19;5115002;28;20361;-65
2022/06/04 04:14:38;;;;;;;7.82;5.03;;;;;;;13.69;69.91;101747.97;5115109;28;20061;-65
2022/06/04 04:17:04;;;;;;;7.70;5.22;;;;;;;13.75;70.11;101747.91;5115024;28;20047;-64
2022/06/04 04:19:30;;;;;;;8.65;5.63;;;;;;;13.74;70.17;101756.69;5115098;28;20046;-63
2022/06/04 04:21:56;;;;;;;11.48;5.55;;;;;;;13.77;70.29;101761.94;5114835;28;20046;-64
2022/06/04 04:24:21;;;;;;;8.60;5.30;;;;;;;13.71;70.50;101744.44;5114736;28;20379;-65
2022/06/04 04:26:46;;;;;;;9.70;5.70;;;;;;;13.74;70.61;101754.06;5115134;28;20434;-65
2022/06/04 04:29:12;;;;;;;8.75;4.93;;;;;;;13.81;70.15;101759.25;5114956;28;20071;-65
2022/06/04 04:31:37;;;;;;;9.50;5.30;;;;;;;13.69;71.09;101764.63;5115121;28;20085;-64
2022/06/04 04:34:04;;;;;;;8.38;5.40;;;;;;;13.64;71.04;101763.84;5098992;28;20429;-67
2022/06/04 04:36:30;;;;;;;9.68;5.68;;;;;;;13.62;71.38;101773.50;5118063;28;20462;-64
2022/06/04 04:38:56;;;;;;;10.35;5.95;;;;;;;13.62;71.65;101778.75;5118399;28;20035;-65
2022/06/04 04:41:23;;;;;;;9.90;5.43;;;;;;;13.65;71.54;101781.38;5118356;28;20027;-64
2022/06/04 04:43:49;;;;;;;6.10;5.03;;;;;;;13.66;71.62;101784.88;5118710;28;20050;-64
2022/06/04 04:46:16;;;;;;;7.45;5.47;;;;;;;13.73;71.55;101782.13;5118681;28;20027;-65
2022/06/04 04:48:44;;;;;;;8.55;5.25;;;;;;;13.82;71.36;101786.44;5118262;28;20205;-64
2022/06/04 04:51:18;;;;;;;10.88;5.53;;;;;;;13.93;70.83;101800.31;5118355;28;20453;-64
2022/06/04 04:53:44;;;;;;;10.20;6.18;;;;;;;13.92;71.13;101803.84;5117753;28;20628;-66
2022/06/04 04:56:13;;;;;;;8.35;5.68;;;;;;;13.90;71.25;101792.47;5118249;28;20439;-64
2022/06/04 04:58:38;;;;;;;9.18;5.35;;;;;;;13.88;71.52;101797.75;5118397;28;20392;-56
2022/06/04 05:01:03;;;;;;;7.57;5.75;;;;;;;13.86;71.79;101798.63;5118101;28;20039;-64
2022/06/04 05:03:29;;;;;;;9.45;5.47;;;;;;;13.97;71.91;101790.63;5118171;28;20039;-63
2022/06/04 05:06:03;;;;;;;9.80;6.10;;;;;;;13.97;71.72;101788.00;5117753;28;20031;-65
2022/06/04 05:08:29;;;;;;;8.65;5.88;;;;;;;14.00;71.79;101802.00;5117845;28;20055;-64
2022/06/04 05:10:54;;;;;;;8.82;5.90;;;;;;;13.92;71.94;101804.72;5117928;28;20046;-64
2022/06/04 05:13:20;;;;;;;10.05;5.97;;;;;;;13.93;71.91;101787.16;5117959;28;20407;-65
2022/06/04 05:15:45;;;;;;;8.52;6.10;;;;;;;13.91;72.19;101786.31;5117916;28;20111;-65
2022/06/04 05:18:11;;;;;;;8.48;6.07;;;;;;;14.04;71.91;101797.53;5117672;28;20418;-64
2022/06/04 05:20:37;;;;;;;8.32;5.93;;;;;;;14.00;72.26;101801.13;5117556;28;20431;-65
2022/06/04 05:23:02;;;;;;;9.52;5.68;;;;;;;14.00;72.32;101802.00;5117802;28;20036;-64
2022/06/04 05:25:28;;;;;;;8.52;6.10;;;;;;;14.01;72.33;101814.28;5117174;28;20051;-65
2022/06/04 05:27:54;;;;;;;8.52;6.15;;;;;;;13.94;72.42;101795.03;5117750;28;20502;-64
2022/06/04 05:30:19;;;;;;;10.10;6.40;;;;;;;14.05;72.29;101794.91;5117408;28;20062;-64
2022/06/04 05:32:45;;;;;;;9.82;6.35;;;;;;;14.15;72.44;101803.56;5113135;28;20037;-63
2022/06/04 05:35:10;;;;;;;9.10;6.45;;;;;;;14.32;71.90;101811.25;5117246;28;20023;-65
2022/06/04 05:37:36;;;;;;;11.77;6.35;;;;;;;14.35;71.78;101801.56;5117280;28;20027;-64
2022/06/04 05:40:04;;;;;;;9.95;6.35;;;;;;;14.49;70.97;101818.06;5117291;28;20073;-64
2022/06/04 05:42:29;;;;;;;9.02;6.53;;;;;;;14.54;71.18;101821.50;5117168;28;20046;-64
2022/06/04 05:44:54;;;;;;;10.15;6.30;;;;;;;14.55;71.31;101825.84;5117207;28;20121;-66
2022/06/04 05:47:20;;;;;;;10.20;5.93;;;;;;;14.60;71.10;101824.03;5117275;28;20039;-65
2022/06/04 05:49:45;;;;;;;12.43;6.70;;;;;;;14.50;71.15;101814.53;5117103;28;20058;-65
2022/06/04 05:52:10;;;;;;;10.45;6.97;;;;;;;14.50;71.61;101821.56;5117009;28;20032;-64
2022/06/04 05:54:36;;;;;;;9.40;6.97;;;;;;;14.48;71.64;101826.84;5116796;28;20114;-63
2022/06/04 05:57:01;;;;;;;12.18;6.97;;;;;;;14.45;71.57;101826.88;5116907;28;20080;-64
2022/06/04 05:59:26;;;;;;;10.35;7.07;;;;;;;14.41;72.20;101826.94;5117208;28;20051;-64
2022/06/04 06:01:52;;;;;;;10.40;6.65;;;;;;;14.41;72.08;101829.56;5116966;28;20124;-63
2022/06/04 06:04:19;;;;;;;10.88;7.10;;;;;;;14.43;72.05;101827.78;5116823;28;20421;-64
2022/06/04 06:06:48;;;;;;;13.05;7.00;;;;;;;14.53;72.72;101826.78;5116661;28;20038;-64
2022/06/04 06:09:15;;;;;;;9.65;6.85;;;;;;;14.59;72.03;101830.19;5116544;28;20024;-64
2022/06/04 06:11:41;;;;;;;10.43;7.05;;;;;;;14.57;72.13;101828.47;5116594;28;20360;-63
2022/06/04 06:14:08;;;;;;;10.57;7.05;;;;;;;14.62;71.95;101826.66;5116676;28;20043;-64
2022/06/04 06:16:37;;;;;;;12.68;7.40;;;;;;;14.65;71.65;101828.38;5116656;28;20115;-65
2022/06/04 06:19:02;;;;;;;11.90;7.38;;;;;;;14.66;71.52;101819.56;5116444;28;20033;-64
2022/06/04 06:21:29;;;;;;;11.43;7.40;;;;;;;14.55;72.11;101822.34;5116341;28;20350;-64
2022/06/04 06:23:55;;;;;;;13.65;7.30;;;;;;;14.57;72.21;101821.44;5116615;28;20075;-64
2022/06/04 06:26:23;;;;;;;11.25;7.43;;;;;;;14.73;72.25;101818.56;5116676;28;20059;-61
2022/06/04 06:28:49;;;;;;;9.70;7.57;;;;;;;15.01;71.26;101816.41;5116260;28;20031;-66
2022/06/04 06:31:17;;;;;;;12.02;7.75;;;;;;;15.11;71.00;101823.25;5116412;28;20092;-64
2022/06/04 06:33:43;;;;;;;12.27;7.88;;;;;;;15.01;70.50;101824.31;5116023;28;20123;-64
2022/06/04 06:36:11;;;;;;;11.35;7.68;;;;;;;14.90;70.85;101843.78;5116325;28;20073;-64
2022/06/04 06:38:37;;;;;;;11.48;8.73;;;;;;;15.01;71.04;101850.66;5116107;28;20068;-65
2022/06/04 06:41:03;;;;;;;11.25;7.80;;;;;;;15.17;71.14;101849.53;5115995;28;20352;-67
2022/06/04 06:43:52;;;;;;;10.50;7.85;;;;;;;15.26;70.07;101842.31;5116125;28;20556;-64
2022/06/04 06:46:18;;;;;;;11.90;8.13;;;;;;;15.40;70.11;101849.16;5115570;28;20031;-64
2022/06/04 06:48:45;;;;;;;12.93;8.13;;;;;;;15.51;69.99;101855.97;5116013;28;20049;-64
2022/06/04 06:51:36;;;;;;;10.63;7.75;;;;;;;15.55;69.20;101849.78;5116240;28;20342;-65
2022/06/04 06:54:03;;;;;;;13.18;7.82;;;;;;;15.51;69.34;101852.47;5115831;28;20047;-65
2022/06/04 06:56:31;;;;;;;14.88;8.00;;;;;;;15.54;68.82;101850.66;5115605;28;20031;-64
2022/06/04 06:58:58;;;;;;;10.45;7.55;;;;;;;15.52;69.00;101848.94;5115829;28;20096;-65
2022/06/04 07:01:26;;;;;;;12.02;8.13;;;;;;;15.53;69.42;101850.69;5115409;28;20043;-65
2022/06/04 07:03:52;;;;;;;13.23;8.23;;;;;;;15.52;69.27;101846.28;5115771;28;20342;-65
2022/06/04 07:06:30;;;;;;;13.18;8.30;;;;;;;15.55;69.29;101849.78;5115774;28;20031;-66
2022/06/04 07:08:55;;;;;;;12.55;8.02;;;;;;;15.58;69.34;101851.50;5115381;28;20057;-67
2022/06/04 07:11:21;;;;;;;11.73;8.40;;;;;;;15.64;68.54;101844.31;5115564;28;20413;-65
2022/06/04 07:13:46;;;;;;;9.68;7.82;;;;;;;15.66;68.66;101846.94;5115392;28;20081;-67
2022/06/04 07:16:11;;;;;;;12.73;8.55;;;;;;;15.58;68.83;101833.03;5115605;28;20478;-68
2022/06/04 07:18:38;;;;;;;10.43;7.97;;;;;;;15.61;68.28;101849.66;5115862;28;20035;-68
2022/06/04 07:21:04;;;;;;;11.30;8.50;;;;;;;15.50;68.96;101856.88;5115087;28;20047;-66
2022/06/04 07:23:33;;;;;;;13.05;8.48;;;;;;;15.53;68.29;101856.81;5115119;28;20059;-66
2022/06/04 07:26:00;;;;;;;12.65;8.77;;;;;;;15.37;69.24;101855.34;5115720;28;20099;-67
2022/06/04 07:28:25;;;;;;;14.27;9.23;;;;;;;15.34;69.86;101858.03;5115412;28;20031;-67
2022/06/04 07:30:50;;;;;;;12.10;9.23;;;;;;;15.42;69.72;101866.66;5115441;28;20031;-66
2022/06/04 07:33:16;;;;;;;14.68;8.65;;;;;;;15.57;69.63;101855.91;5115346;28;20051;-67
2022/06/04 07:35:50;;;;;;;13.60;8.30;;;;;;;15.79;68.96;101866.06;5115511;28;20027;-68
2022/06/04 07:38:16;;;;;;;12.70;8.13;;;;;;;15.89;68.46;101859.72;5115298;28;20059;-66
2022/06/04 07:40:42;;;;;;;12.13;8.50;;;;;;;15.95;68.06;101871.00;5115122;28;20028;-68
2022/06/04 07:43:07;;;;;;;12.68;9.15;;;;;;;15.87;68.16;101874.72;5115326;28;20035;-65
2022/06/04 07:45:34;;;;;;;12.80;8.60;;;;;;;15.92;68.54;101880.78;5111882;28;20034;-67
2022/06/04 07:48:00;;;;;;;18.40;9.48;;;;;;;15.89;68.05;101878.19;5115445;28;20028;-61
2022/06/04 07:50:25;;;;;;;11.75;9.15;;;;;;;15.88;67.73;101876.44;5115244;28;20132;-65
2022/06/04 07:52:50;;;;;;;12.75;9.25;;;;;;;15.74;68.21;101867.94;5113192;28;20039;-67
2022/06/04 07:55:16;;;;;;;12.10;9.10;;;;;;;15.83;68.72;101873.88;5111643;28;20030;-66
2022/06/04 07:57:41;;;;;;;12.23;8.90;;;;;;;15.90;68.59;101859.69;5115197;28;20038;-66
2022/06/04 08:00:08;;;;;;;12.50;8.90;;;;;;;16.02;68.45;101874.41;5115148;28;20431;-65
2022/06/04 08:02:33;;;;;;;10.65;8.43;;;;;;;16.21;67.59;101881.06;5114877;28;20023;-67
2022/06/04 08:04:59;;;;;;;14.25;9.23;;;;;;;16.06;67.26;101873.47;5115200;28;20058;-66
2022/06/04 08:07:24;;;;;;;12.05;9.10;;;;;;;16.00;67.65;101874.44;5114884;28;20434;-65
2022/06/04 08:09:50;;;;;;;11.45;8.63;;;;;;;15.96;67.50;101870.09;5118932;28;20035;-64
2022/06/04 08:12:16;;;;;;;14.50;9.07;;;;;;;15.91;67.50;101872.00;5119093;28;20027;-66
2022/06/04 08:14:42;;;;;;;11.50;8.50;;;;;;;15.92;68.20;101875.50;5118734;28;20031;-65
2022/06/04 08:17:09;;;;;;;14.05;9.50;;;;;;;15.98;67.68;101859.53;5119165;28;20084;-57
2022/06/04 08:19:34;;;;;;;14.10;8.57;;;;;;;15.99;67.78;101871.81;5112259;28;20082;-66
2022/06/04 08:22:00;;;;;;;16.55;9.73;;;;;;;15.99;67.73;101869.19;5115609;28;20094;-65
2022/06/04 08:24:25;;;;;;;12.00;8.75;;;;;;;16.06;68.16;101859.38;5118638;28;20062;-66
2022/06/04 08:26:59;;;;;;;12.68;9.07;;;;;;;16.16;67.77;101864.44;5118656;28;20035;-65
2022/06/04 08:29:29;;;;;;;12.48;9.50;;;;;;;16.15;67.88;101857.41;5118623;28;20047;-65
2022/06/04 08:31:55;;;;;;;12.27;8.85;;;;;;;16.11;67.42;101847.81;5118514;28;20035;-66
2022/06/04 08:34:20;;;;;;;13.23;9.20;;;;;;;16.01;67.37;101841.84;5118441;28;20173;-64
2022/06/04 08:36:45;;;;;;;11.55;8.75;;;;;;;16.01;67.59;101841.00;5118279;28;20032;-64
2022/06/04 08:39:11;;;;;;;13.68;9.13;;;;;;;16.02;68.12;101840.09;5103380;28;20039;-66
2022/06/04 08:42:10;;;;;;;13.43;8.90;;;;;;;16.10;67.47;101854.03;5098093;28;20024;-68
2022/06/04 08:44:53;;;;;;;11.82;9.35;;;;;;;16.14;67.48;101858.31;5097639;28;20089;-65
2022/06/04 08:47:36;;;;;;;17.23;9.55;;;;;;;16.28;67.38;101868.59;5097860;28;20036;-65
2022/06/04 08:50:10;;;;;;;14.13;9.40;;;;;;;16.31;67.30;101874.69;5097983;28;20024;-65
2022/06/04 08:52:42;;;;;;;12.68;9.30;;;;;;;16.47;66.93;101872.59;5097906;28;20028;-66
2022/06/04 08:58:36;;;;;;;15.32;9.48;;;;;;;16.77;65.86;101876.41;5098049;28;20124;-66
2022/06/04 09:01:10;;;;;;;10.90;8.95;;;;;;;16.86;65.09;101876.16;5097987;28;20429;-65
2022/06/04 09:04:00;;;;;;;15.00;9.73;;;;;;;17.14;65.00;101862.31;5097753;28;20028;-65
2022/06/04 09:06:52;;;;;;;10.35;9.25;;;;;;;17.64;64.14;101867.22;5097709;28;20024;-65
2022/06/04 09:09:29;;;;;;;14.85;9.60;;;;;;;17.89;62.54;101872.72;5097577;28;20028;-65
2022/06/04 09:11:57;;;;;;;12.98;9.07;;;;;;;18.59;60.71;101838.03;5097583;28;20032;-66
2022/06/04 09:14:43;;;;;;;14.07;9.70;;;;;;;19.62;58.58;101865.63;5097276;28;20336;-66
2022/06/04 09:17:16;;;;;;;12.15;8.90;;;;;;;20.19;54.74;101846.75;5097392;28;20020;-66
2022/06/04 09:19:47;;;;;;;10.73;8.55;;;;;;;20.50;54.58;101857.97;5096854;28;20511;-66
2022/06/04 09:22:19;;;;;;;11.67;8.50;;;;;;;21.23;52.25;101848.88;5104559;28;20446;-66
2022/06/04 09:24:44;;;;;;;14.25;9.07;;;;;;;22.03;49.22;101847.16;5117272;28;20344;-66
2022/06/04 09:27:28;;;;;;;11.38;8.55;;;;;;;21.50;50.54;101860.16;5093355;28;20080;-65
2022/06/04 09:30:25;;;;;;;14.95;8.77;;;;;;;21.07;52.29;101869.03;5100462;28;20020;-66
2022/06/04 09:33:22;;;;;;;14.98;9.27;;;;;;;20.53;52.56;101867.63;5101607;28;20043;-67
2022/06/04 09:35:47;;;;;;;12.10;9.80;;;;;;;20.01;54.39;101872.22;5117489;28;20039;-66
2022/06/04 09:38:31;;;;;;;12.13;8.85;;;;;;;20.05;55.29;101865.88;5100771;28;20027;-66
2022/06/04 09:41:18;;;;;;;15.23;9.18;;;;;;;19.99;55.04;101870.53;5105498;28;20054;-65
2022/06/04 09:43:45;;;;;;;16.45;9.60;;;;;;;20.02;55.08;101851.81;5117336;28;20106;-65
2022/06/04 09:46:13;;;;;;;11.02;8.85;;;;;;;20.03;55.01;101872.16;5105180;28;20032;-66
2022/06/04 09:48:48;;;;;;;14.38;10.00;;;;;;;19.88;55.12;101873.56;5096651;28;20032;-67
2022/06/04 09:51:24;;;;;;;14.05;9.70;;;;;;;20.02;55.02;101870.41;5096582;28;20024;-65
2022/06/04 09:54:03;;;;;;;13.25;9.70;;;;;;;20.10;54.91;101877.16;5096326;28;20072;-66
2022/06/04 09:56:39;;;;;;;14.98;9.20;;;;;;;20.11;54.84;101868.28;5096706;28;20032;-66
2022/06/04 09:59:17;;;;;;;13.63;9.80;;;;;;;19.83;56.03;101874.66;5096314;28;20324;-65
2022/06/04 10:02:11;;;;;;;13.73;9.27;;;;;;;19.94;56.80;101878.66;5096044;28;20062;-65
2022/06/04 10:04:44;;;;;;;12.43;10.07;;;;;;;19.93;55.36;101882.22;5095999;28;20057;-66
2022/06/04 10:07:12;;;;;;;13.90;9.63;;;;;;;19.78;56.00;101882.78;5096657;28;20040;-59
2022/06/04 10:09:56;;;;;;;12.00;9.68;;;;;;;19.76;55.72;101889.94;5098609;28;20407;-62
2022/06/04 10:15:41;;;;;;;12.63;9.38;;;;;;;19.84;56.81;101889.66;5096664;28;20124;-65
2022/06/04 10:18:31;;;;;;;13.10;9.93;;;;;;;20.13;55.70;101884.16;5108457;28;20043;-66
2022/06/04 10:21:00;;;;;;;12.70;9.88;;;;;;;20.41;54.88;101884.06;5116338;28;20462;-65
2022/06/04 10:23:27;;;;;;;12.60;10.75;;;;;;;20.28;54.04;101886.25;5116457;28;20423;-65
2022/06/04 10:26:16;;;;;;;16.02;9.70;;;;;;;20.30;55.86;101880.88;5116533;28;20027;-65
2022/06/04 10:28:53;;;;;;;12.93;10.48;;;;;;;20.32;55.07;101892.34;5112623;28;20035;-64
2022/06/04 10:31:27;;;;;;;13.15;9.93;;;;;;;20.39;54.84;101885.91;5115727;28;20508;-64
2022/06/04 10:34:06;;;;;;;11.57;9.85;;;;;;;20.41;55.38;101892.03;5116005;28;20031;-66
2022/06/04 10:36:49;;;;;;;12.13;10.57;;;;;;;20.45;54.48;101890.97;5116449;28;20040;-64
2022/06/04 10:39:19;;;;;;;14.70;10.88;;;;;;;20.66;55.04;101878.66;5116093;28;20035;-65
2022/06/04 10:42:05;;;;;;;12.38;10.13;;;;;;;20.96;53.88;101885.44;5116030;28;20324;-66
2022/06/04 10:44:47;;;;;;;15.30;10.30;;;;;;;21.18;54.38;101880.09;5098407;28;20062;-65
2022/06/04 10:47:25;;;;;;;13.38;10.00;;;;;;;21.64;52.47;101878.22;5095577;28;20470;-65
2022/06/04 10:50:11;;;;;;;15.55;10.80;;;;;;;21.71;51.18;101887.66;5095731;28;20028;-65
2022/06/04 10:52:54;;;;;;;15.20;10.75;;;;;;;21.54;51.73;101880.41;5095635;28;20028;-66
2022/06/04 10:55:28;;;;;;;11.90;10.60;;;;;;;21.64;52.19;101883.56;5095802;28;20028;-66
2022/06/04 10:58:21;;;;;;;12.45;10.27;;;;;;;22.26;51.19;101880.78;5095312;28;20032;-65
2022/06/04 11:00:53;;;;;;;13.00;9.63;;;;;;;22.76;49.18;101880.25;5109425;28;20043;-64
2022/06/04 11:03:45;;;;;;;11.43;10.18;;;;;;;23.10;48.80;101868.81;5109901;28;20035;-64
2022/06/04 11:06:17;;;;;;;;;;;;;;;22.96;48.28;101888.19;5098103;28;20347;-64
2022/06/04 11:08:46;;;;;;;;;;;;;;;22.66;48.93;101885.16;5095558;28;20247;-63
2022/06/04 11:11:28;;;;;;;14.32;10.88;;;;;;;22.34;49.03;101883.13;5095194;28;19918;-66
2022/06/04 11:13:59;;;;;;;14.38;10.75;;;;;;;22.24;49.21;101874.66;5106426;28;20032;-64
2022/06/04 11:16:41;;;;;;;13.45;10.07;;;;;;;22.20;50.47;101878.41;5115379;28;20035;-65
2022/06/04 11:19:21;;;;;;;13.70;10.57;;;;;;;22.12;50.12;101888.56;5108315;28;20123;-64
2022/06/04 11:21:53;;;;;;;18.67;10.35;;;;;;;21.98;50.69;101881.16;5094030;28;20042;-65
2022/06/04 11:24:33;;;;;;;12.75;10.00;;;;;;;22.31;50.16;101885.94;5097617;28;20052;-64
2022/06/04 11:27:31;;;;;;;14.20;10.82;;;;;;;22.43;50.54;101886.22;5103333;28;20471;-64
2022/06/04 11:29:57;;;;;;;13.27;11.25;;;;;;;22.75;49.86;101873.16;5112348;28;20446;-64
2022/06/04 11:33:08;;;;;;;14.10;11.00;;;;;;;23.17;47.94;101879.13;5094988;28;20028;-66
2022/06/04 11:35:52;;;;;;;12.80;10.38;;;;;;;23.39;47.49;101884.25;5095808;28;20347;-65
2022/06/04 11:38:39;;;;;;;13.90;10.23;;;;;;;23.77;47.81;101873.44;5109730;28;20115;-64
2022/06/04 11:41:22;;;;;;;14.13;10.95;;;;;;;23.77;46.77;101871.63;5094876;28;20439;-57
2022/06/04 11:44:11;;;;;;;11.80;9.80;;;;;;;23.60;46.54;101871.66;5099139;28;20035;-67
2022/06/04 11:47:07;;;;;;;16.00;10.73;;;;;;;23.36;46.72;101864.88;5099311;28;20030;-66
2022/06/04 11:50:20;;;;;;;13.77;10.63;;;;;;;23.16;46.69;101852.50;5099101;28;20028;-66
2022/06/04 11:53:04;;;;;;;14.40;10.60;;;;;;;22.85;47.81;101839.81;5091578;28;20070;-66
2022/06/04 11:55:34;;;;;;;14.27;10.65;;;;;;;22.90;47.75;101862.66;5099022;28;20467;-66